首页
METAR-TAF:

METAR-TAF

机场 :

马斯特里赫特亚琛机场

马斯特里赫特 亚琛, 荷兰

纬度: 50-55N, 经度: 005-47E, 海拔: 114米

当前天气观测

该预报发布于45分钟前的01:25 UTC
风速2节,风向多变
温度 12°C
湿度 82%
气压 1028 hPa
能见度10公里或以上

METAR: EHBK 070125Z AUTO VRB02KT 9999 NSC 12/09 Q1028

时间: 04:10 (02:10 UTC)

预报

该预报发布于2小时和55分钟前的23:15 UTC
预报有效从07日的 00点(UTC)到 08日的 06点(UTC)
风速4节,风向西转西南
能见度10公里或以上
1500米以下无云,无积雨云
几率 30%
从 07日的 03点(UTC)到 07日的 07点(UTC)
能見度: 7000

TAF: EHBK 062315Z 0700/0806 24004KT CAVOK PROB30 0703/0707 7000

超过4000个机场的气象观测和天气预报(METAR&TAF报告)。

可查询的气象台以黄色和红色小点在地图上表示。

将鼠标移到小点上方,可查看气象台名称。

然后点击查看天气观测和预报。

如需切换地图:点击带黑十字的绿色按钮放大地图;点击带横线的绿色按钮缩小地图;或者点击绿色箭头查看邻近地区的地图。


METAR-TAF: